This is the latest recevied weather packets stored in our database for station/object OE5RBO. If no packets are shown the sender has not sent any weather packets the latest 1 day(s).
| Time | Temp. | Humidity | Pressure | Rain* | Wind** | Luminosity | Snow |
|---|---|---|---|---|---|---|---|
| 1777971518 | 23.89° C | 53% | 1007.7 hPa | 0 mm | 0 m/s | - | - |
| 1777970918 | 23.33° C | 52% | 1007.7 hPa | 0 mm | 1.34 m/s, 203° | - | - |
| 1777970318 | 24.44° C | 53% | 1007.7 hPa | 0 mm | 0.89 m/s, 24° | - | - |
| 1777969717 | 23.89° C | 56% | 1007.8 hPa | 0 mm | 0.89 m/s, 350° | - | - |
| 1777969118 | 23.33° C | 58% | 1007.8 hPa | 0 mm | 0 m/s | - | - |
| 1777968517 | 23.89° C | 56% | 1007.9 hPa | 0 mm | 0.45 m/s, 353° | - | - |
| 1777967916 | 23.33° C | 57% | 1008 hPa | 0 mm | 0.45 m/s, 166° | - | - |
| 1777967316 | 23.33° C | 58% | 1008 hPa | 0 mm | 0.45 m/s, 214° | - | - |
| 1777966715 | 23.89° C | 55% | 1008.1 hPa | 0 mm | 0 m/s | - | - |
| 1777966115 | 25° C | 54% | 1008.2 hPa | 0 mm | 0.45 m/s, 167° | - | - |
| 1777965514 | 25.56° C | 53% | 1008.2 hPa | 0 mm | 0 m/s | - | - |
| 1777964914 | 24.44° C | 54% | 1008.2 hPa | 0 mm | 0 m/s | - | - |
| 1777964314 | 23.33° C | 55% | 1008.2 hPa | 0 mm | 0 m/s | - | - |
| 1777963714 | 22.78° C | 58% | 1008.2 hPa | 0 mm | 0 m/s | - | - |
| 1777961912 | 20° C | 66% | 1008.3 hPa | 0 mm | 0 m/s | - | - |
| 1777961312 | 19.44° C | 68% | 1008.5 hPa | 0 mm | 0 m/s | - | - |
| 1777960712 | 18.33° C | 70% | 1008.4 hPa | 0 mm | 0.45 m/s, 215° | - | - |
| 1777959511 | 16.67° C | 78% | 1008.4 hPa | 0 mm | 0 m/s | - | - |
| 1777958911 | 16.67° C | 82% | 1008.4 hPa | 0 mm | 0 m/s | - | - |
| 1777958310 | 14.44° C | 87% | 1008.5 hPa | 0 mm | 0 m/s | - | - |
| 1777957710 | 12.78° C | 92% | 1008.4 hPa | 0 mm | 0 m/s | - | - |
| 1777956509 | 12.22° C | 90% | 1008.5 hPa | 0 mm | 0 m/s | - | - |
| 1777955909 | 13.33° C | 87% | 1008.7 hPa | 0 mm | 0 m/s | - | - |
| 1777955308 | 12.78° C | 91% | 1008.7 hPa | 0 mm | 0.45 m/s, 97° | - | - |
| 1777954708 | 12.78° C | 91% | 1008.8 hPa | 0 mm | 0 m/s | - | - |
* Rain since midnight (hover to see other rain measurements)
** Current wind speed in m/s (hover to see current wind gust speed)